createdAt,value
2023-03-16T00:01:33.150Z,7.79
2023-03-16T00:04:05.730Z,7.63
2023-03-16T00:06:36.800Z,7.66
2023-03-16T00:09:07.496Z,7.62
2023-03-16T00:11:37.386Z,7.52
2023-03-16T00:14:07.297Z,7.73
2023-03-16T00:16:37.928Z,7.63
2023-03-16T00:19:11.003Z,7.47
2023-03-16T00:21:41.095Z,7.35
2023-03-16T00:24:12.867Z,7.35
2023-03-16T00:26:42.714Z,7.44
2023-03-16T00:29:12.678Z,7.05
2023-03-16T00:31:44.117Z,7.10
2023-03-16T00:34:16.880Z,7.10
2023-03-16T00:36:46.680Z,6.96
2023-03-16T00:39:16.621Z,6.89
2023-03-16T00:41:46.517Z,6.89
2023-03-16T00:44:16.446Z,7.17
2023-03-16T00:46:46.256Z,7.06
2023-03-16T00:49:18.702Z,7.30
2023-03-16T00:51:48.659Z,7.35
2023-03-16T00:54:20.088Z,7.21
2023-03-16T00:56:51.374Z,7.52
2023-03-16T00:59:23.326Z,7.00
2023-03-16T01:01:53.233Z,6.94
2023-03-16T01:04:26.012Z,6.73
2023-03-16T01:06:56.587Z,6.87
2023-03-16T01:09:28.706Z,6.49
2023-03-16T01:11:59.026Z,6.83
2023-03-16T01:14:30.976Z,7.09
2023-03-16T01:17:01.526Z,7.22
2023-03-16T01:19:35.797Z,7.21
2023-03-16T01:22:08.661Z,7.00
2023-03-16T01:24:38.969Z,6.99
2023-03-16T01:27:10.723Z,7.10
2023-03-16T01:29:43.765Z,7.17
2023-03-16T01:32:15.069Z,7.11
2023-03-16T01:34:47.853Z,7.05
2023-03-16T01:37:19.077Z,7.25
2023-03-16T01:39:57.872Z,7.24
2023-03-16T01:42:27.858Z,6.92
2023-03-16T01:45:02.159Z,6.96
2023-03-16T01:47:38.290Z,7.00
2023-03-16T01:50:13.390Z,7.10
2023-03-16T01:52:45.947Z,7.43
2023-03-16T01:55:18.462Z,7.28
2023-03-16T01:57:49.849Z,7.11
2023-03-16T02:00:24.667Z,6.66
2023-03-16T02:03:11.737Z,6.72
2023-03-16T02:05:57.753Z,6.85
2023-03-16T02:08:29.882Z,6.87
2023-03-16T02:11:00.431Z,7.04
2023-03-16T02:13:46.062Z,7.50
2023-03-16T02:16:19.659Z,7.26
2023-03-16T02:18:53.919Z,7.06
2023-03-16T02:21:36.702Z,7.18
2023-03-16T02:24:08.595Z,7.18
2023-03-16T02:26:47.754Z,6.94
2023-03-16T02:29:39.652Z,7.10
2023-03-16T02:32:14.806Z,7.15
2023-03-16T02:34:46.442Z,7.10
2023-03-16T02:37:17.809Z,6.59
2023-03-16T02:39:47.691Z,6.88
2023-03-16T02:42:24.607Z,6.96
2023-03-16T02:45:00.581Z,6.42
2023-03-16T02:47:44.454Z,6.41
2023-03-16T02:50:15.452Z,6.58
2023-03-16T02:52:45.258Z,6.24
2023-03-16T02:55:15.129Z,6.63
2023-03-16T02:57:45.281Z,6.50
2023-03-16T03:00:19.193Z,6.50
2023-03-16T03:02:55.249Z,6.04
2023-03-16T03:05:25.053Z,6.22
2023-03-16T03:07:55.157Z,6.68
2023-03-16T03:10:25.225Z,6.28
2023-03-16T03:12:55.164Z,6.02
2023-03-16T03:15:25.043Z,6.21
2023-03-16T03:18:11.932Z,6.28
2023-03-16T03:20:42.973Z,6.43
2023-03-16T03:23:15.428Z,6.05
2023-03-16T03:25:45.474Z,5.73
2023-03-16T03:28:16.533Z,5.38
2023-03-16T03:30:46.750Z,5.46
2023-03-16T03:33:19.131Z,5.62
2023-03-16T03:35:48.976Z,5.93
2023-03-16T03:38:18.867Z,5.52
2023-03-16T03:40:51.223Z,5.33
2023-03-16T03:43:21.530Z,5.38
2023-03-16T03:45:52.465Z,5.28
2023-03-16T03:48:24.951Z,5.44
2023-03-16T03:50:54.956Z,5.09
2023-03-16T03:53:43.337Z,5.46
2023-03-16T03:56:29.390Z,4.98
2023-03-16T03:58:59.450Z,5.44
2023-03-16T04:01:56.001Z,5.69
2023-03-16T04:04:31.047Z,5.50
2023-03-16T04:07:05.225Z,5.45
2023-03-16T04:09:38.622Z,5.56
2023-03-16T04:12:10.921Z,6.01
2023-03-16T04:14:40.788Z,5.71
2023-03-16T04:17:12.592Z,5.86
2023-03-16T04:19:45.628Z,5.98
2023-03-16T04:22:19.142Z,6.15
2023-03-16T04:24:52.275Z,5.99
2023-03-16T04:27:22.539Z,5.98
2023-03-16T04:29:55.780Z,6.14
2023-03-16T04:32:26.431Z,6.54
2023-03-16T04:34:59.334Z,6.34
2023-03-16T04:37:41.383Z,6.60
2023-03-16T04:40:19.424Z,6.67
2023-03-16T04:42:55.432Z,7.20
2023-03-16T04:45:26.805Z,7.19
2023-03-16T04:47:59.390Z,7.33
2023-03-16T04:50:32.066Z,7.45
2023-03-16T04:53:04.566Z,7.49
2023-03-16T04:55:35.532Z,7.83
2023-03-16T04:58:06.035Z,7.76
2023-03-16T05:00:39.097Z,7.56
2023-03-16T05:03:14.619Z,7.86
2023-03-16T05:05:49.920Z,7.70
2023-03-16T05:08:20.706Z,7.43
2023-03-16T05:10:53.015Z,7.74
2023-03-16T05:13:23.167Z,7.94
2023-03-16T05:15:55.306Z,7.76
2023-03-16T05:18:39.031Z,7.87
2023-03-16T05:21:12.814Z,8.13
2023-03-16T05:23:56.929Z,8.46
2023-03-16T05:26:27.191Z,8.05
2023-03-16T05:28:58.312Z,8.14
2023-03-16T05:31:32.745Z,8.33
2023-03-16T05:34:05.096Z,9.11
2023-03-16T05:36:37.593Z,9.21
2023-03-16T05:39:12.145Z,9.33
2023-03-16T05:41:46.670Z,9.61
2023-03-16T05:44:30.033Z,9.19
2023-03-16T05:47:17.674Z,9.66
2023-03-16T05:49:52.787Z,10.08
2023-03-16T05:52:36.906Z,9.51
2023-03-16T05:55:15.865Z,10.08
2023-03-16T05:57:47.369Z,9.94
2023-03-16T06:00:19.776Z,9.79
2023-03-16T06:03:00.297Z,9.58
2023-03-16T06:05:34.189Z,9.76
2023-03-16T06:08:09.234Z,10.01
2023-03-16T06:10:40.291Z,10.12
2023-03-16T06:13:10.236Z,10.33
2023-03-16T06:15:40.625Z,10.67
2023-03-16T06:18:10.958Z,10.53
2023-03-16T06:20:40.919Z,10.56
2023-03-16T06:23:13.668Z,10.24
2023-03-16T06:25:44.436Z,10.49
2023-03-16T06:28:14.351Z,10.63
2023-03-16T06:30:44.905Z,10.75
2023-03-16T06:33:14.782Z,10.42
2023-03-16T06:35:44.824Z,10.58
2023-03-16T06:38:23.050Z,10.67
2023-03-16T06:41:01.727Z,10.77
2023-03-16T06:43:32.107Z,11.44
2023-03-16T06:46:03.339Z,11.33
2023-03-16T06:48:33.603Z,11.43
2023-03-16T06:51:03.488Z,12.69
2023-03-16T06:53:36.572Z,11.10
2023-03-16T06:56:06.897Z,11.57
2023-03-16T06:58:41.840Z,11.98
2023-03-16T07:01:12.639Z,11.89
2023-03-16T07:03:42.604Z,10.18
2023-03-16T07:06:21.067Z,9.93
2023-03-16T07:08:53.512Z,10.24
2023-03-16T07:11:24.816Z,10.35
2023-03-16T07:13:54.661Z,9.90
2023-03-16T07:16:26.327Z,10.02
2023-03-16T07:18:57.018Z,10.30
2023-03-16T07:21:28.069Z,10.04
2023-03-16T07:24:01.461Z,9.85
2023-03-16T07:26:34.970Z,9.51
2023-03-16T07:29:06.417Z,9.23
2023-03-16T07:31:37.430Z,10.02
2023-03-16T07:34:12.784Z,11.89
2023-03-16T07:36:52.882Z,11.21
2023-03-16T07:39:27.127Z,11.30
2023-03-16T07:42:02.807Z,10.51
2023-03-16T07:44:41.890Z,10.09
2023-03-16T07:47:15.636Z,9.82
2023-03-16T07:49:47.050Z,10.40
2023-03-16T07:52:17.105Z,9.99
2023-03-16T07:54:49.531Z,10.04
2023-03-16T07:57:19.461Z,9.93
2023-03-16T07:59:50.507Z,9.96
2023-03-16T08:02:22.948Z,9.86
2023-03-16T08:04:53.200Z,10.12
2023-03-16T08:07:23.111Z,10.00
2023-03-16T08:09:59.911Z,9.46
2023-03-16T08:12:36.517Z,8.80
2023-03-16T08:15:07.363Z,8.60
2023-03-16T08:17:41.770Z,8.48
2023-03-16T08:20:15.898Z,8.62
2023-03-16T08:22:49.726Z,8.97
2023-03-16T08:25:26.710Z,9.09
2023-03-16T08:28:21.760Z,9.67
2023-03-16T08:30:55.608Z,9.55
2023-03-16T08:33:50.699Z,9.45
2023-03-16T08:36:24.348Z,9.29
2023-03-16T08:39:06.595Z,8.53
2023-03-16T08:41:47.114Z,8.38
2023-03-16T08:44:44.064Z,8.90
2023-03-16T08:47:15.100Z,9.68
2023-03-16T08:49:47.539Z,8.80
2023-03-16T08:52:19.942Z,8.79
2023-03-16T08:55:02.505Z,8.65
2023-03-16T08:57:37.554Z,8.45
2023-03-16T09:00:13.820Z,8.11
2023-03-16T09:02:45.755Z,8.04
2023-03-16T09:05:18.385Z,8.24
2023-03-16T09:07:49.028Z,8.61
2023-03-16T09:10:19.064Z,8.43
2023-03-16T09:12:52.527Z,7.78
2023-03-16T09:15:24.010Z,7.62
2023-03-16T09:17:54.464Z,7.74
2023-03-16T09:20:29.502Z,7.76
2023-03-16T09:23:00.840Z,7.69
2023-03-16T09:25:32.477Z,8.23
2023-03-16T09:28:05.359Z,9.88
2023-03-16T09:30:35.769Z,8.25
2023-03-16T09:33:06.227Z,6.81
2023-03-16T09:35:37.176Z,6.54
2023-03-16T09:38:08.644Z,6.84
2023-03-16T09:40:41.495Z,6.72
2023-03-16T09:43:34.513Z,6.21
2023-03-16T09:46:12.818Z,5.43
2023-03-16T09:48:43.812Z,6.12
2023-03-16T09:51:23.795Z,5.45
2023-03-16T09:54:01.736Z,5.42
2023-03-16T09:56:39.865Z,6.31
2023-03-16T09:59:18.545Z,7.22
2023-03-16T10:02:09.026Z,5.85
2023-03-16T10:04:51.409Z,5.48
2023-03-16T10:07:33.493Z,5.85
2023-03-16T10:10:18.550Z,5.52
2023-03-16T10:12:55.081Z,5.58
2023-03-16T10:15:32.629Z,6.02
2023-03-16T10:18:09.509Z,5.95
2023-03-16T10:20:42.042Z,5.49
2023-03-16T10:23:21.527Z,5.31
2023-03-16T10:25:53.658Z,5.16
2023-03-16T10:28:26.288Z,4.93
2023-03-16T10:31:04.319Z,4.65
2023-03-16T10:33:37.730Z,4.58
2023-03-16T10:36:19.354Z,4.26
2023-03-16T10:38:55.324Z,4.34
2023-03-16T10:41:30.738Z,4.21
2023-03-16T10:44:07.439Z,3.89
2023-03-16T10:46:48.382Z,4.04
2023-03-16T10:49:27.283Z,4.29
2023-03-16T10:51:59.890Z,4.19
2023-03-16T10:54:35.739Z,4.06
2023-03-16T10:57:17.808Z,4.03
2023-03-16T10:59:52.871Z,3.43
2023-03-16T11:02:28.087Z,3.16
2023-03-16T11:04:57.934Z,3.22
2023-03-16T11:07:28.238Z,3.24
2023-03-16T11:09:59.756Z,3.33
2023-03-16T11:12:33.368Z,2.86
2023-03-16T11:15:09.391Z,2.33
2023-03-16T11:17:51.484Z,2.56
2023-03-16T11:20:28.770Z,2.55
2023-03-16T11:22:58.664Z,2.32
2023-03-16T11:25:35.509Z,2.36
2023-03-16T11:28:18.340Z,2.23
2023-03-16T11:30:59.301Z,1.93
2023-03-16T11:33:34.961Z,1.78
2023-03-16T11:36:25.378Z,1.88
2023-03-16T11:39:07.419Z,2.05
2023-03-16T11:41:52.226Z,1.97
2023-03-16T11:44:35.538Z,2.00
2023-03-16T11:47:20.676Z,2.15
2023-03-16T11:50:05.557Z,1.92
2023-03-16T11:52:50.658Z,2.10
2023-03-16T11:55:32.396Z,2.06
2023-03-16T11:58:22.367Z,2.26
2023-03-16T12:01:07.528Z,2.15
2023-03-16T12:04:02.129Z,1.96
2023-03-16T12:06:57.642Z,1.92
2023-03-16T12:09:53.926Z,1.78
2023-03-16T12:12:37.667Z,1.64
2023-03-16T12:15:25.869Z,1.61
2023-03-16T12:18:03.760Z,2.06
2023-03-16T12:20:49.348Z,1.70
2023-03-16T12:23:27.943Z,1.67
2023-03-16T12:26:03.635Z,1.58
2023-03-16T12:28:35.015Z,1.58
2023-03-16T12:31:14.276Z,1.68
2023-03-16T12:34:09.322Z,1.58
2023-03-16T12:36:54.302Z,1.69
2023-03-16T12:39:48.880Z,1.77
2023-03-16T12:42:39.917Z,1.58
2023-03-16T12:45:19.674Z,1.56
2023-03-16T12:48:01.313Z,1.74
2023-03-16T12:50:31.868Z,1.97
2023-03-16T12:53:02.091Z,2.04
2023-03-16T12:55:48.276Z,1.82
2023-03-16T12:58:21.304Z,1.64
2023-03-16T13:01:00.903Z,1.55
2023-03-16T13:03:31.485Z,1.66
2023-03-16T13:06:03.625Z,1.69
2023-03-16T13:08:46.346Z,1.73
2023-03-16T13:11:19.127Z,1.73
2023-03-16T13:13:54.938Z,1.67
2023-03-16T13:16:30.560Z,1.50
2023-03-16T13:19:01.600Z,1.41
2023-03-16T13:21:40.943Z,1.38
2023-03-16T13:24:29.665Z,1.45
2023-03-16T13:27:09.400Z,1.30
2023-03-16T13:29:39.511Z,1.54
2023-03-16T13:32:20.316Z,1.96
2023-03-16T13:34:53.323Z,1.50
2023-03-16T13:37:25.172Z,1.33
2023-03-16T13:39:56.431Z,1.35
2023-03-16T13:42:32.544Z,1.38
2023-03-16T13:45:15.716Z,1.18
2023-03-16T13:47:47.033Z,1.34
2023-03-16T13:50:19.627Z,1.37
2023-03-16T13:53:04.134Z,1.17
2023-03-16T13:55:36.929Z,1.03
2023-03-16T13:58:22.303Z,1.21
2023-03-16T14:00:52.893Z,1.43
2023-03-16T14:03:24.040Z,1.35
2023-03-16T14:05:54.068Z,1.16
2023-03-16T14:08:26.848Z,1.12
2023-03-16T14:11:01.336Z,1.26
2023-03-16T14:13:39.586Z,1.07
2023-03-16T14:16:17.796Z,1.13
2023-03-16T14:18:50.215Z,1.29
2023-03-16T14:21:25.892Z,1.19
2023-03-16T14:24:02.036Z,1.19
2023-03-16T14:26:43.250Z,1.17
2023-03-16T14:29:25.008Z,1.19
2023-03-16T14:31:55.887Z,1.22
2023-03-16T14:34:32.781Z,1.50
2023-03-16T14:37:11.407Z,1.46
2023-03-16T14:39:42.504Z,2.14
2023-03-16T14:42:21.756Z,1.75
2023-03-16T14:44:54.707Z,1.45
2023-03-16T14:47:28.191Z,1.57
2023-03-16T14:50:04.554Z,1.52
2023-03-16T14:52:35.610Z,1.35
2023-03-16T14:55:14.802Z,1.58
2023-03-16T14:57:46.202Z,1.65
2023-03-16T15:00:21.653Z,1.62
2023-03-16T15:03:06.184Z,1.45
2023-03-16T15:05:40.012Z,1.54
2023-03-16T15:08:17.524Z,1.60
2023-03-16T15:10:49.222Z,1.64
2023-03-16T15:13:34.961Z,1.46
2023-03-16T15:16:08.832Z,1.59
2023-03-16T15:18:41.987Z,1.73
2023-03-16T15:21:15.519Z,1.81
2023-03-16T15:23:46.826Z,1.87
2023-03-16T15:26:19.204Z,1.59
2023-03-16T15:28:49.138Z,1.63
2023-03-16T15:31:21.708Z,1.74
2023-03-16T15:33:51.647Z,1.75
2023-03-16T15:36:25.051Z,1.93
2023-03-16T15:38:57.220Z,1.75
2023-03-16T15:41:32.451Z,1.70
2023-03-16T15:44:15.991Z,1.74
2023-03-16T15:46:48.709Z,1.91
2023-03-16T15:49:18.901Z,1.70
2023-03-16T15:51:48.822Z,2.00
2023-03-16T15:54:19.148Z,2.08
2023-03-16T15:56:54.676Z,2.47
2023-03-16T15:59:27.194Z,2.24
2023-03-16T16:01:59.834Z,2.49
2023-03-16T16:04:30.091Z,2.43
2023-03-16T16:07:02.258Z,2.09
2023-03-16T16:09:35.410Z,2.19
2023-03-16T16:12:05.309Z,2.39
2023-03-16T16:14:35.233Z,2.18
2023-03-16T16:17:08.675Z,2.32
2023-03-16T16:19:39.350Z,2.35
2023-03-16T16:22:14.627Z,2.29
2023-03-16T16:24:45.535Z,2.56
2023-03-16T16:27:16.618Z,2.91
2023-03-16T16:29:46.840Z,2.63
2023-03-16T16:32:27.500Z,2.92
2023-03-16T16:35:04.205Z,2.88
2023-03-16T16:37:35.084Z,2.90
2023-03-16T16:40:05.415Z,2.85
2023-03-16T16:42:35.710Z,2.97
2023-03-16T16:45:06.432Z,3.02
2023-03-16T16:47:38.969Z,3.34
2023-03-16T16:50:17.102Z,3.11
2023-03-16T16:52:47.107Z,2.90
2023-03-16T16:55:17.424Z,3.10
2023-03-16T16:57:48.274Z,3.71
2023-03-16T17:00:21.265Z,3.36
2023-03-16T17:02:57.784Z,3.26
2023-03-16T17:05:30.220Z,3.67
2023-03-16T17:08:04.164Z,2.99
2023-03-16T17:10:34.994Z,3.37
2023-03-16T17:13:04.870Z,3.35
2023-03-16T17:15:37.045Z,3.75
2023-03-16T17:18:15.542Z,3.85
2023-03-16T17:20:45.868Z,3.89
2023-03-16T17:23:30.531Z,4.18
2023-03-16T17:26:05.424Z,4.21
2023-03-16T17:28:41.682Z,4.25
2023-03-16T17:31:13.450Z,4.46
2023-03-16T17:33:46.934Z,4.00
2023-03-16T17:36:19.307Z,4.09
2023-03-16T17:38:50.037Z,4.08
2023-03-16T17:41:26.887Z,4.31
2023-03-16T17:43:59.853Z,4.48
2023-03-16T17:46:33.282Z,4.28
2023-03-16T17:49:08.946Z,4.24
2023-03-16T17:51:40.407Z,4.14
2023-03-16T17:54:10.421Z,4.16
2023-03-16T17:56:41.716Z,4.11
2023-03-16T17:59:20.746Z,4.68
2023-03-16T18:01:52.311Z,4.29
2023-03-16T18:04:27.753Z,4.05
2023-03-16T18:06:57.660Z,4.11
2023-03-16T18:09:28.826Z,4.34
2023-03-16T18:11:58.949Z,4.63
2023-03-16T18:14:36.392Z,4.65
2023-03-16T18:17:18.593Z,4.43
2023-03-16T18:19:51.956Z,4.74
2023-03-16T18:22:24.661Z,5.02
2023-03-16T18:24:56.683Z,4.63
2023-03-16T18:27:27.292Z,5.22
2023-03-16T18:29:57.227Z,5.81
2023-03-16T18:32:32.025Z,6.34
2023-03-16T18:35:04.574Z,6.67
2023-03-16T18:37:34.681Z,6.85
2023-03-16T18:40:04.729Z,6.05
2023-03-16T18:42:34.601Z,6.28
2023-03-16T18:45:04.642Z,6.01
2023-03-16T18:47:35.719Z,6.14
2023-03-16T18:50:09.485Z,6.16
2023-03-16T18:52:41.164Z,5.57
2023-03-16T18:55:18.611Z,5.36
2023-03-16T18:57:51.714Z,5.77
2023-03-16T19:00:25.686Z,5.75
2023-03-16T19:02:59.112Z,6.55
2023-03-16T19:05:38.034Z,6.42
2023-03-16T19:08:09.289Z,6.20
2023-03-16T19:10:47.486Z,6.30
2023-03-16T19:13:21.155Z,6.86
2023-03-16T19:15:52.224Z,6.91
2023-03-16T19:18:22.965Z,6.68
2023-03-16T19:20:58.106Z,6.53
2023-03-16T19:23:31.391Z,6.44
2023-03-16T19:26:01.804Z,6.56
2023-03-16T19:28:34.887Z,6.58
2023-03-16T19:31:10.018Z,6.05
2023-03-16T19:33:39.900Z,6.21
2023-03-16T19:36:18.398Z,5.86
2023-03-16T19:38:50.453Z,5.77
2023-03-16T19:41:26.955Z,5.75
2023-03-16T19:43:59.265Z,5.71
2023-03-16T19:46:30.841Z,5.80
2023-03-16T19:49:00.759Z,6.03
2023-03-16T19:51:33.486Z,6.00
2023-03-16T19:54:03.426Z,6.07
2023-03-16T19:56:33.521Z,5.77
2023-03-16T19:59:03.550Z,5.69
2023-03-16T20:01:35.379Z,5.60
2023-03-16T20:04:05.723Z,5.53
2023-03-16T20:06:41.192Z,5.87
2023-03-16T20:09:11.149Z,5.57
2023-03-16T20:11:41.406Z,5.90
2023-03-16T20:14:21.646Z,5.30
2023-03-16T20:16:51.804Z,5.52
2023-03-16T20:19:22.402Z,5.48
2023-03-16T20:21:54.991Z,5.44
2023-03-16T20:24:24.895Z,5.33
2023-03-16T20:26:56.274Z,5.15
2023-03-16T20:29:33.232Z,5.70
2023-03-16T20:32:04.040Z,5.41
2023-03-16T20:34:34.812Z,5.50
2023-03-16T20:37:12.720Z,5.49
2023-03-16T20:39:43.890Z,5.94
2023-03-16T20:42:19.409Z,6.02
2023-03-16T20:44:49.473Z,5.26
2023-03-16T20:47:22.771Z,5.17
2023-03-16T20:49:54.141Z,5.57
2023-03-16T20:52:30.805Z,5.38
2023-03-16T20:55:01.183Z,5.53
2023-03-16T20:57:32.344Z,5.73
2023-03-16T21:00:05.372Z,6.14
2023-03-16T21:02:38.554Z,5.66
2023-03-16T21:05:11.153Z,6.43
2023-03-16T21:07:46.940Z,7.09
2023-03-16T21:10:20.065Z,6.51
2023-03-16T21:12:54.142Z,6.88
2023-03-16T21:15:28.760Z,7.55
2023-03-16T21:18:02.053Z,8.47
2023-03-16T21:20:34.382Z,8.66
2023-03-16T21:23:07.202Z,8.50
2023-03-16T21:25:46.533Z,8.82
2023-03-16T21:28:17.871Z,8.72
2023-03-16T21:30:50.470Z,8.74
2023-03-16T21:33:31.765Z,8.56
2023-03-16T21:36:03.048Z,8.77
2023-03-16T21:38:38.744Z,8.41
2023-03-16T21:41:09.279Z,8.66
2023-03-16T21:43:39.397Z,8.53
2023-03-16T21:46:16.805Z,8.60
2023-03-16T21:48:49.690Z,8.90
2023-03-16T21:51:22.200Z,8.60
2023-03-16T21:53:55.252Z,7.84
2023-03-16T21:56:28.367Z,8.30
2023-03-16T21:58:59.118Z,8.61
2023-03-16T22:01:35.141Z,8.22
2023-03-16T22:04:09.014Z,7.66
2023-03-16T22:06:39.598Z,7.52
2023-03-16T22:09:20.887Z,8.04
2023-03-16T22:11:51.409Z,7.80
2023-03-16T22:14:22.014Z,8.11
2023-03-16T22:16:52.353Z,8.16
2023-03-16T22:19:22.353Z,7.70
2023-03-16T22:21:52.548Z,7.98
2023-03-16T22:24:28.334Z,8.00
2023-03-16T22:26:58.811Z,7.71
2023-03-16T22:29:31.706Z,7.80
2023-03-16T22:32:04.556Z,7.63
2023-03-16T22:34:41.320Z,7.41
2023-03-16T22:37:15.738Z,7.75
2023-03-16T22:39:48.315Z,7.62
2023-03-16T22:42:30.740Z,7.43
2023-03-16T22:45:00.932Z,7.74
2023-03-16T22:47:33.045Z,7.53
2023-03-16T22:50:03.660Z,7.48
2023-03-16T22:52:39.504Z,7.46
2023-03-16T22:55:21.217Z,7.60
2023-03-16T22:57:54.426Z,7.99
2023-03-16T23:00:28.762Z,7.63
2023-03-16T23:02:59.248Z,7.38
2023-03-16T23:05:32.523Z,7.24
2023-03-16T23:08:05.686Z,7.78
2023-03-16T23:10:39.117Z,7.66
2023-03-16T23:13:16.919Z,7.78
2023-03-16T23:15:49.358Z,8.08
2023-03-16T23:18:22.436Z,8.02
2023-03-16T23:20:57.044Z,7.86
2023-03-16T23:23:30.351Z,7.51
2023-03-16T23:26:05.006Z,7.34
2023-03-16T23:28:35.157Z,7.53
2023-03-16T23:31:07.817Z,7.30
2023-03-16T23:33:37.764Z,7.33
2023-03-16T23:36:15.932Z,7.52
2023-03-16T23:38:52.321Z,6.92
2023-03-16T23:41:28.571Z,6.98
2023-03-16T23:43:58.978Z,6.58
2023-03-16T23:46:32.291Z,6.68
2023-03-16T23:49:06.875Z,6.61
2023-03-16T23:51:40.768Z,6.91
2023-03-16T23:54:20.113Z,7.19
2023-03-16T23:56:54.086Z,6.41
2023-03-16T23:59:24.407Z,6.58
